AAL2317 KMCO-KPHL
Flight info
| Callsign | AAL2317 |
|---|---|
| Flight time | 1h 46m |
| Altitude | 37000 |
| Route | FATHE4 VIYAP Q87 JROSS Q135 RREGG Q117 SAWED Q97 ZJAAY JIIMS4 |
| Aircraft | A321/M-SDE3FGHIRWY/LB1 |
Departure
| Time | 2026-05-03 22:54 |
|---|---|
| Airport | Orlando International Airport (KMCO) |
Arrival
| Time | 2026-05-04 00:40 |
|---|---|
| Airport | Philadelphia International Airport (KPHL) |
| Time | Latitude | Longitude | Altitude | Speed | Heading |
|---|---|---|---|---|---|
| 2026-05-03 21:41 | 28.42823 | -81.31610 | 102 ft | 0 kts | 88° |
| 2026-05-03 22:41 | 28.42823 | -81.31611 | 102 ft | 0 kts | 88° |
| 2026-05-03 22:41 | 28.42823 | -81.31627 | 102 ft | 3 kts | 88° |
| 2026-05-03 22:41 | 28.42822 | -81.31649 | 102 ft | 3 kts | 88° |
| 2026-05-03 22:41 | 28.42820 | -81.31670 | 101 ft | 3 kts | 53° |
| 2026-05-03 22:42 | 28.42810 | -81.31679 | 100 ft | 2 kts | 352° |
| 2026-05-03 22:42 | 28.42799 | -81.31677 | 101 ft | 2 kts | 347° |
| 2026-05-03 22:42 | 28.42786 | -81.31673 | 99 ft | 0 kts | 347° |
| 2026-05-03 22:42 | 28.42785 | -81.31673 | 99 ft | 0 kts | 347° |
| 2026-05-03 22:45 | 28.42788 | -81.31674 | 99 ft | 2 kts | 348° |
| 2026-05-03 22:45 | 28.42821 | -81.31681 | 100 ft | 8 kts | 349° |
| 2026-05-03 22:45 | 28.42890 | -81.31696 | 102 ft | 12 kts | 347° |
| 2026-05-03 22:46 | 28.42952 | -81.31756 | 101 ft | 13 kts | 304° |
| 2026-05-03 22:46 | 28.42942 | -81.31832 | 102 ft | 11 kts | 177° |
| 2026-05-03 22:46 | 28.42875 | -81.31833 | 103 ft | 11 kts | 188° |
| 2026-05-03 22:46 | 28.42787 | -81.31839 | 105 ft | 14 kts | 179° |
| 2026-05-03 22:47 | 28.42681 | -81.31835 | 107 ft | 17 kts | 179° |
| 2026-05-03 22:47 | 28.42551 | -81.31836 | 107 ft | 21 kts | 177° |
| 2026-05-03 22:47 | 28.42409 | -81.31830 | 107 ft | 15 kts | 177° |
| 2026-05-03 22:47 | 28.42348 | -81.31761 | 106 ft | 15 kts | 93° |
| 2026-05-03 22:48 | 28.42347 | -81.31619 | 103 ft | 20 kts | 88° |
| 2026-05-03 22:48 | 28.42348 | -81.31445 | 101 ft | 24 kts | 90° |
| 2026-05-03 22:48 | 28.42348 | -81.31245 | 100 ft | 25 kts | 93° |
| 2026-05-03 22:48 | 28.42320 | -81.31053 | 100 ft | 27 kts | 101° |
| 2026-05-03 22:49 | 28.42323 | -81.30840 | 100 ft | 28 kts | 85° |
| 2026-05-03 22:49 | 28.42339 | -81.30630 | 106 ft | 27 kts | 85° |
| 2026-05-03 22:49 | 28.42354 | -81.30413 | 101 ft | 28 kts | 83° |
| 2026-05-03 22:49 | 28.42359 | -81.30208 | 103 ft | 24 kts | 89° |
| 2026-05-03 22:50 | 28.42365 | -81.30015 | 104 ft | 24 kts | 89° |
| 2026-05-03 22:50 | 28.42363 | -81.29848 | 103 ft | 15 kts | 93° |
| 2026-05-03 22:50 | 28.42283 | -81.29790 | 102 ft | 16 kts | 180° |
| 2026-05-03 22:50 | 28.42165 | -81.29791 | 102 ft | 18 kts | 179° |
| 2026-05-03 22:51 | 28.42034 | -81.29789 | 102 ft | 20 kts | 179° |
| 2026-05-03 22:51 | 28.41887 | -81.29788 | 102 ft | 22 kts | 180° |
| 2026-05-03 22:51 | 28.41728 | -81.29787 | 102 ft | 24 kts | 179° |
| 2026-05-03 22:51 | 28.41554 | -81.29786 | 102 ft | 26 kts | 179° |
| 2026-05-03 22:52 | 28.41367 | -81.29783 | 101 ft | 28 kts | 179° |
| 2026-05-03 22:52 | 28.41167 | -81.29779 | 101 ft | 30 kts | 180° |
| 2026-05-03 22:52 | 28.40956 | -81.29778 | 100 ft | 32 kts | 178° |
| 2026-05-03 22:52 | 28.40824 | -81.29708 | 99 ft | 19 kts | 84° |
| 2026-05-03 22:53 | 28.40824 | -81.29581 | 99 ft | 11 kts | 67° |
| 2026-05-03 22:53 | 28.40933 | -81.29561 | 98 ft | 38 kts | 359° |
| 2026-05-03 22:53 | 28.41470 | -81.29565 | 105 ft | 113 kts | 359° |
| 2026-05-03 22:53 | 28.42444 | -81.29572 | 171 ft | 161 kts | 359° |
| 2026-05-03 22:54 | 28.43547 | -81.29595 | 945 ft | 156 kts | 359° |
| 2026-05-03 22:54 | 28.44637 | -81.29609 | 1665 ft | 158 kts | 9° |
| 2026-05-03 22:54 | 28.45674 | -81.29099 | 2083 ft | 171 kts | 33° |
| 2026-05-03 22:54 | 28.46675 | -81.28346 | 2615 ft | 178 kts | 30° |
| 2026-05-03 22:55 | 28.47812 | -81.27614 | 2968 ft | 199 kts | 27° |
| 2026-05-03 22:55 | 28.49123 | -81.26821 | 3275 ft | 226 kts | 27° |
| 2026-05-03 22:55 | 28.50562 | -81.25932 | 3790 ft | 246 kts | 31° |
| 2026-05-03 22:55 | 28.52223 | -81.25280 | 4448 ft | 261 kts | 7° |
| 2026-05-03 22:56 | 28.54066 | -81.25145 | 5234 ft | 269 kts | 3° |
| 2026-05-03 22:56 | 28.55930 | -81.25100 | 6030 ft | 274 kts | 357° |
| 2026-05-03 22:56 | 28.57855 | -81.25157 | 6839 ft | 279 kts | 354° |
| 2026-05-03 22:56 | 28.59811 | -81.25315 | 7634 ft | 283 kts | 351° |
| 2026-05-03 22:57 | 28.61781 | -81.25586 | 8447 ft | 286 kts | 348° |
| 2026-05-03 22:57 | 28.63778 | -81.25900 | 9291 ft | 290 kts | 347° |
| 2026-05-03 22:57 | 28.65759 | -81.26218 | 10091 ft | 293 kts | 346° |
| 2026-05-03 22:57 | 28.67842 | -81.26547 | 10501 ft | 313 kts | 347° |
| 2026-05-03 22:58 | 28.70091 | -81.26896 | 10738 ft | 337 kts | 347° |
| 2026-05-03 22:58 | 28.72490 | -81.27251 | 11035 ft | 356 kts | 348° |
| 2026-05-03 22:58 | 28.74988 | -81.27601 | 11636 ft | 363 kts | 348° |
| 2026-05-03 22:58 | 28.76659 | -81.27829 | 12067 ft | 367 kts | 347° |
| 2026-05-03 22:59 | 28.80055 | -81.28291 | 12982 ft | 373 kts | 347° |
| 2026-05-03 22:59 | 28.81811 | -81.28532 | 13408 ft | 377 kts | 347° |
| 2026-05-03 22:59 | 28.84408 | -81.28891 | 14079 ft | 382 kts | 347° |
| 2026-05-03 22:59 | 28.87076 | -81.29197 | 14691 ft | 388 kts | 348° |
| 2026-05-03 23:00 | 28.90681 | -81.29511 | 15535 ft | 394 kts | 349° |
| 2026-05-03 23:00 | 28.93429 | -81.29713 | 16176 ft | 398 kts | 350° |
| 2026-05-03 23:00 | 28.95302 | -81.29848 | 16600 ft | 400 kts | 349° |
| 2026-05-03 23:00 | 28.98098 | -81.30055 | 17254 ft | 404 kts | 349° |
| 2026-05-03 23:01 | 29.00886 | -81.30283 | 17873 ft | 407 kts | 349° |
| 2026-05-03 23:01 | 29.03722 | -81.30566 | 18457 ft | 411 kts | 348° |
| 2026-05-03 23:01 | 29.06587 | -81.30891 | 18976 ft | 414 kts | 347° |
| 2026-05-03 23:01 | 29.09455 | -81.31233 | 19509 ft | 417 kts | 347° |
| 2026-05-03 23:02 | 29.12364 | -81.31562 | 20042 ft | 421 kts | 348° |
| 2026-05-03 23:02 | 29.15308 | -81.31808 | 20593 ft | 426 kts | 349° |
| 2026-05-03 23:02 | 29.18245 | -81.31984 | 21112 ft | 430 kts | 350° |
| 2026-05-03 23:02 | 29.21258 | -81.32130 | 21639 ft | 434 kts | 351° |
| 2026-05-03 23:03 | 29.24292 | -81.32270 | 22153 ft | 437 kts | 350° |
| 2026-05-03 23:03 | 29.27352 | -81.32419 | 22684 ft | 439 kts | 350° |
| 2026-05-03 23:03 | 29.30416 | -81.32581 | 23173 ft | 442 kts | 349° |
| 2026-05-03 23:03 | 29.33467 | -81.32757 | 23653 ft | 445 kts | 349° |
| 2026-05-03 23:04 | 29.36571 | -81.32945 | 24043 ft | 448 kts | 349° |
| 2026-05-03 23:04 | 29.39704 | -81.33141 | 24428 ft | 451 kts | 349° |
| 2026-05-03 23:04 | 29.42854 | -81.33343 | 24809 ft | 454 kts | 349° |
| 2026-05-03 23:04 | 29.46027 | -81.33543 | 25191 ft | 457 kts | 349° |
| 2026-05-03 23:05 | 29.49186 | -81.33734 | 25565 ft | 460 kts | 349° |
| 2026-05-03 23:05 | 29.52399 | -81.33925 | 25939 ft | 463 kts | 349° |
| 2026-05-03 23:05 | 29.55637 | -81.34116 | 26350 ft | 466 kts | 349° |
| 2026-05-03 23:05 | 29.58903 | -81.34312 | 26705 ft | 469 kts | 348° |
| 2026-05-03 23:06 | 29.62177 | -81.34510 | 27062 ft | 472 kts | 348° |
| 2026-05-03 23:06 | 29.65433 | -81.34704 | 27413 ft | 475 kts | 348° |
| 2026-05-03 23:06 | 29.68746 | -81.34896 | 27761 ft | 478 kts | 348° |
| 2026-05-03 23:06 | 29.72086 | -81.35085 | 28094 ft | 481 kts | 348° |
| 2026-05-03 23:07 | 29.75450 | -81.35275 | 28443 ft | 484 kts | 348° |
| 2026-05-03 23:07 | 29.78829 | -81.35468 | 28786 ft | 486 kts | 348° |
| 2026-05-03 23:07 | 29.82176 | -81.35662 | 29127 ft | 489 kts | 348° |
| 2026-05-03 23:07 | 29.85601 | -81.35862 | 29485 ft | 493 kts | 348° |
| 2026-05-03 23:08 | 29.89050 | -81.36061 | 29800 ft | 496 kts | 348° |
| 2026-05-03 23:08 | 29.92465 | -81.36256 | 30228 ft | 496 kts | 348° |
| 2026-05-03 23:08 | 29.95916 | -81.36452 | 30637 ft | 495 kts | 348° |
| 2026-05-03 23:08 | 29.99360 | -81.36647 | 31059 ft | 493 kts | 348° |
| 2026-05-03 23:09 | 30.02796 | -81.36840 | 31496 ft | 491 kts | 347° |
| 2026-05-03 23:09 | 30.06174 | -81.37030 | 31921 ft | 489 kts | 347° |
| 2026-05-03 23:09 | 30.09590 | -81.37222 | 32357 ft | 487 kts | 347° |
| 2026-05-03 23:09 | 30.12939 | -81.37415 | 32843 ft | 485 kts | 347° |
| 2026-05-03 23:10 | 30.16314 | -81.37611 | 33306 ft | 483 kts | 347° |
| 2026-05-03 23:10 | 30.19666 | -81.37809 | 33730 ft | 481 kts | 346° |
| 2026-05-03 23:10 | 30.23010 | -81.38006 | 34156 ft | 479 kts | 346° |
| 2026-05-03 23:10 | 30.26303 | -81.38198 | 34483 ft | 478 kts | 346° |
| 2026-05-03 23:11 | 30.29634 | -81.38391 | 34776 ft | 479 kts | 346° |
| 2026-05-03 23:11 | 30.32973 | -81.38585 | 35047 ft | 480 kts | 346° |
| 2026-05-03 23:11 | 30.36317 | -81.38780 | 35315 ft | 481 kts | 346° |
| 2026-05-03 23:11 | 30.39670 | -81.38978 | 35582 ft | 482 kts | 345° |
| 2026-05-03 23:12 | 30.42985 | -81.39174 | 35854 ft | 483 kts | 345° |
| 2026-05-03 23:12 | 30.46348 | -81.39370 | 36129 ft | 484 kts | 345° |
| 2026-05-03 23:12 | 30.49725 | -81.39557 | 36388 ft | 485 kts | 345° |
| 2026-05-03 23:12 | 30.53106 | -81.39733 | 36648 ft | 486 kts | 345° |
| 2026-05-03 23:13 | 30.56492 | -81.39908 | 36887 ft | 487 kts | 345° |
| 2026-05-03 23:13 | 30.59883 | -81.40083 | 37102 ft | 488 kts | 345° |
| 2026-05-03 23:13 | 30.63235 | -81.40258 | 37147 ft | 486 kts | 345° |
| 2026-05-03 23:14 | 30.69997 | -81.40609 | 37158 ft | 485 kts | 345° |
| 2026-05-03 23:14 | 30.76709 | -81.40966 | 37141 ft | 485 kts | 345° |
| 2026-05-03 23:15 | 30.83457 | -81.41332 | 37140 ft | 484 kts | 345° |
| 2026-05-03 23:15 | 30.90211 | -81.41698 | 37138 ft | 484 kts | 345° |
| 2026-05-03 23:16 | 30.96916 | -81.42049 | 37169 ft | 485 kts | 345° |
| 2026-05-03 23:16 | 31.03667 | -81.42398 | 37156 ft | 485 kts | 345° |
| 2026-05-03 23:17 | 31.10416 | -81.42754 | 37150 ft | 484 kts | 345° |
| 2026-05-03 23:17 | 31.17125 | -81.43116 | 37147 ft | 484 kts | 345° |
| 2026-05-03 23:18 | 31.23885 | -81.43100 | 37218 ft | 501 kts | 357° |
| 2026-05-03 23:18 | 31.27346 | -81.42222 | 37126 ft | 513 kts | 9° |
| 2026-05-03 23:18 | 31.30691 | -81.40634 | 37118 ft | 521 kts | 17° |
| 2026-05-03 23:19 | 31.37267 | -81.37025 | 37118 ft | 521 kts | 17° |
| 2026-05-03 23:19 | 31.43819 | -81.33478 | 37125 ft | 522 kts | 16° |
| 2026-05-03 23:20 | 31.50432 | -81.29896 | 37170 ft | 523 kts | 17° |
| 2026-05-03 23:20 | 31.57044 | -81.26301 | 37132 ft | 523 kts | 17° |
| 2026-05-03 23:21 | 31.63617 | -81.22720 | 37133 ft | 524 kts | 17° |
| 2026-05-03 23:21 | 31.70243 | -81.19099 | 37123 ft | 525 kts | 17° |
| 2026-05-03 23:22 | 31.80135 | -81.13681 | 37101 ft | 523 kts | 17° |
| 2026-05-03 23:22 | 31.86736 | -81.10058 | 37101 ft | 521 kts | 17° |
| 2026-05-03 23:23 | 31.93299 | -81.06464 | 37096 ft | 522 kts | 17° |
| 2026-05-03 23:23 | 31.99883 | -81.02836 | 37105 ft | 522 kts | 17° |
| 2026-05-03 23:24 | 32.06412 | -80.99214 | 37087 ft | 519 kts | 17° |
| 2026-05-03 23:24 | 32.12916 | -80.95562 | 37086 ft | 516 kts | 18° |
| 2026-05-03 23:25 | 32.19417 | -80.91913 | 37129 ft | 516 kts | 18° |
| 2026-05-03 23:25 | 32.25878 | -80.88281 | 37105 ft | 517 kts | 17° |
| 2026-05-03 23:26 | 32.32403 | -80.84614 | 37164 ft | 519 kts | 17° |
| 2026-05-03 23:26 | 32.38898 | -80.80957 | 37148 ft | 519 kts | 17° |
| 2026-05-03 23:27 | 32.45447 | -80.77265 | 37146 ft | 519 kts | 17° |
| 2026-05-03 23:27 | 32.51943 | -80.73588 | 37147 ft | 519 kts | 18° |
| 2026-05-03 23:28 | 32.58465 | -80.69885 | 37131 ft | 517 kts | 18° |
| 2026-05-03 23:28 | 32.64931 | -80.66225 | 37132 ft | 516 kts | 17° |
| 2026-05-03 23:29 | 32.71163 | -80.61912 | 37129 ft | 530 kts | 33° |
| 2026-05-03 23:29 | 32.76384 | -80.55608 | 37138 ft | 538 kts | 45° |
| 2026-05-03 23:30 | 32.81305 | -80.48937 | 37153 ft | 539 kts | 45° |
| 2026-05-03 23:30 | 32.86268 | -80.42222 | 37143 ft | 539 kts | 45° |
| 2026-05-03 23:31 | 32.91195 | -80.35533 | 37139 ft | 539 kts | 45° |
| 2026-05-03 23:31 | 32.96151 | -80.28795 | 37139 ft | 539 kts | 45° |
| 2026-05-03 23:32 | 33.01072 | -80.22092 | 37140 ft | 540 kts | 45° |
| 2026-05-03 23:32 | 33.06021 | -80.15337 | 37095 ft | 540 kts | 45° |
| 2026-05-03 23:33 | 33.10946 | -80.08606 | 37111 ft | 541 kts | 45° |
| 2026-05-03 23:33 | 33.15905 | -80.01807 | 37120 ft | 542 kts | 45° |
| 2026-05-03 23:34 | 33.20837 | -79.95034 | 37128 ft | 543 kts | 45° |
| 2026-05-03 23:34 | 33.25806 | -79.88207 | 37134 ft | 543 kts | 45° |
| 2026-05-03 23:35 | 33.30718 | -79.81437 | 37119 ft | 540 kts | 45° |
| 2026-05-03 23:35 | 33.35629 | -79.74637 | 37094 ft | 540 kts | 45° |
| 2026-05-03 23:36 | 33.40554 | -79.67821 | 37103 ft | 541 kts | 45° |
| 2026-05-03 23:36 | 33.45463 | -79.61028 | 37114 ft | 542 kts | 45° |
| 2026-05-03 23:37 | 33.50418 | -79.54153 | 37129 ft | 543 kts | 45° |
| 2026-05-03 23:37 | 33.55313 | -79.47343 | 37133 ft | 540 kts | 45° |
| 2026-05-03 23:38 | 33.60226 | -79.40506 | 37110 ft | 540 kts | 45° |
| 2026-05-03 23:38 | 33.65119 | -79.33684 | 37101 ft | 542 kts | 45° |
| 2026-05-03 23:39 | 33.70051 | -79.26768 | 37113 ft | 544 kts | 45° |
| 2026-05-03 23:39 | 33.74955 | -79.19882 | 37175 ft | 544 kts | 45° |
| 2026-05-03 23:40 | 33.79876 | -79.12966 | 37151 ft | 543 kts | 45° |
| 2026-05-03 23:40 | 33.84762 | -79.06090 | 37146 ft | 542 kts | 45° |
| 2026-05-03 23:41 | 33.89670 | -78.99179 | 37112 ft | 543 kts | 45° |
| 2026-05-03 23:41 | 33.94590 | -78.92231 | 37113 ft | 544 kts | 45° |
| 2026-05-03 23:42 | 33.99509 | -78.85263 | 37154 ft | 545 kts | 45° |
| 2026-05-03 23:42 | 34.04395 | -78.78334 | 37144 ft | 544 kts | 45° |
| 2026-05-03 23:43 | 34.09307 | -78.71356 | 37142 ft | 543 kts | 45° |
| 2026-05-03 23:43 | 34.14176 | -78.64430 | 37103 ft | 543 kts | 45° |
| 2026-05-03 23:44 | 34.19079 | -78.57433 | 37105 ft | 545 kts | 45° |
| 2026-05-03 23:44 | 34.23959 | -78.50443 | 37119 ft | 542 kts | 44° |
| 2026-05-03 23:45 | 34.29349 | -78.44273 | 37124 ft | 533 kts | 34° |
| 2026-05-03 23:45 | 34.34928 | -78.38339 | 37122 ft | 534 kts | 35° |
| 2026-05-03 23:46 | 34.40477 | -78.32410 | 37116 ft | 534 kts | 35° |
| 2026-05-03 23:46 | 34.46053 | -78.26437 | 37102 ft | 531 kts | 35° |
| 2026-05-03 23:47 | 34.51556 | -78.20534 | 37099 ft | 530 kts | 35° |
| 2026-05-03 23:47 | 34.57085 | -78.14590 | 37105 ft | 530 kts | 35° |
| 2026-05-03 23:48 | 34.62593 | -78.08649 | 37111 ft | 530 kts | 35° |
| 2026-05-03 23:48 | 34.67200 | -78.03667 | 37149 ft | 530 kts | 35° |
| 2026-05-03 23:49 | 34.73593 | -77.96754 | 37134 ft | 530 kts | 36° |
| 2026-05-03 23:49 | 34.78176 | -77.91792 | 37118 ft | 529 kts | 35° |
| 2026-05-03 23:50 | 34.83707 | -77.85800 | 37116 ft | 530 kts | 35° |
| 2026-05-03 23:50 | 34.89421 | -77.80313 | 37173 ft | 520 kts | 26° |
| 2026-05-03 23:51 | 34.95417 | -77.75429 | 37092 ft | 516 kts | 26° |
| 2026-05-03 23:51 | 35.01371 | -77.70571 | 37097 ft | 517 kts | 26° |
| 2026-05-03 23:52 | 35.07344 | -77.65689 | 37106 ft | 517 kts | 26° |
| 2026-05-03 23:52 | 35.13354 | -77.60762 | 37155 ft | 518 kts | 26° |
| 2026-05-03 23:53 | 35.19299 | -77.55881 | 37120 ft | 518 kts | 26° |
| 2026-05-03 23:53 | 35.25302 | -77.50942 | 37117 ft | 519 kts | 26° |
| 2026-05-03 23:54 | 35.31272 | -77.46021 | 37116 ft | 519 kts | 26° |
| 2026-05-03 23:54 | 35.37255 | -77.41078 | 37119 ft | 519 kts | 26° |
| 2026-05-03 23:55 | 35.43252 | -77.36122 | 37120 ft | 519 kts | 26° |
| 2026-05-03 23:55 | 35.49226 | -77.31176 | 37119 ft | 519 kts | 26° |
| 2026-05-03 23:56 | 35.55225 | -77.26192 | 37121 ft | 519 kts | 26° |
| 2026-05-03 23:56 | 35.61165 | -77.21247 | 37080 ft | 514 kts | 26° |
| 2026-05-03 23:57 | 35.67071 | -77.16326 | 37085 ft | 513 kts | 26° |
| 2026-05-03 23:57 | 35.72974 | -77.11409 | 37091 ft | 515 kts | 26° |
| 2026-05-03 23:58 | 35.78919 | -77.06443 | 37098 ft | 516 kts | 26° |
| 2026-05-03 23:58 | 35.84859 | -77.01459 | 37130 ft | 516 kts | 26° |
| 2026-05-03 23:59 | 35.90766 | -76.96502 | 37130 ft | 515 kts | 25° |
| 2026-05-03 23:59 | 35.96942 | -76.92138 | 37124 ft | 508 kts | 20° |
| 2026-05-04 00:00 | 36.03107 | -76.87900 | 37175 ft | 508 kts | 20° |
| 2026-05-04 00:00 | 36.06188 | -76.85775 | 37074 ft | 505 kts | 20° |
| 2026-05-04 00:00 | 36.09257 | -76.83656 | 37074 ft | 503 kts | 20° |
| 2026-05-04 00:01 | 36.15386 | -76.79425 | 37081 ft | 504 kts | 20° |
| 2026-05-04 00:01 | 36.21496 | -76.75201 | 37087 ft | 505 kts | 20° |
| 2026-05-04 00:02 | 36.27625 | -76.70954 | 37129 ft | 506 kts | 20° |
| 2026-05-04 00:02 | 36.33795 | -76.66666 | 37115 ft | 506 kts | 20° |
| 2026-05-04 00:03 | 36.39922 | -76.62405 | 37108 ft | 506 kts | 20° |
| 2026-05-04 00:03 | 36.46067 | -76.58116 | 37106 ft | 506 kts | 20° |
| 2026-05-04 00:04 | 36.52181 | -76.53844 | 37064 ft | 500 kts | 20° |
| 2026-05-04 00:04 | 36.58196 | -76.49637 | 37052 ft | 498 kts | 20° |
| 2026-05-04 00:05 | 36.64271 | -76.45384 | 37072 ft | 501 kts | 20° |
| 2026-05-04 00:05 | 36.70366 | -76.41110 | 37127 ft | 503 kts | 20° |
| 2026-05-04 00:06 | 36.76437 | -76.36837 | 37123 ft | 503 kts | 20° |
| 2026-05-04 00:06 | 36.82513 | -76.32547 | 37118 ft | 503 kts | 20° |
| 2026-05-04 00:07 | 36.88622 | -76.28236 | 37116 ft | 503 kts | 20° |
| 2026-05-04 00:07 | 36.94714 | -76.23927 | 37088 ft | 500 kts | 20° |
| 2026-05-04 00:08 | 37.00716 | -76.19659 | 37083 ft | 498 kts | 20° |
| 2026-05-04 00:08 | 37.06774 | -76.15358 | 37082 ft | 499 kts | 20° |
| 2026-05-04 00:09 | 37.12791 | -76.11087 | 37088 ft | 500 kts | 20° |
| 2026-05-04 00:09 | 37.18869 | -76.06766 | 37122 ft | 501 kts | 20° |
| 2026-05-04 00:10 | 37.24928 | -76.02445 | 37119 ft | 501 kts | 20° |
| 2026-05-04 00:10 | 37.30963 | -75.98125 | 37116 ft | 501 kts | 20° |
| 2026-05-04 00:11 | 37.37032 | -75.93762 | 37102 ft | 500 kts | 20° |
| 2026-05-04 00:11 | 37.43005 | -75.89460 | 37071 ft | 495 kts | 20° |
| 2026-05-04 00:12 | 37.49007 | -75.85152 | 37070 ft | 496 kts | 20° |
| 2026-05-04 00:12 | 37.54989 | -75.80863 | 37077 ft | 497 kts | 20° |
| 2026-05-04 00:13 | 37.61019 | -75.76509 | 37085 ft | 498 kts | 20° |
| 2026-05-04 00:13 | 37.67003 | -75.72177 | 37085 ft | 499 kts | 20° |
| 2026-05-04 00:14 | 37.73049 | -75.67806 | 37094 ft | 499 kts | 20° |
| 2026-05-04 00:14 | 37.79057 | -75.63447 | 37109 ft | 499 kts | 20° |
| 2026-05-04 00:15 | 37.85067 | -75.59065 | 37098 ft | 497 kts | 20° |
| 2026-05-04 00:15 | 37.91039 | -75.54710 | 37100 ft | 497 kts | 20° |
| 2026-05-04 00:16 | 37.97043 | -75.50325 | 37082 ft | 498 kts | 20° |
| 2026-05-04 00:16 | 38.03044 | -75.45933 | 37048 ft | 493 kts | 20° |
| 2026-05-04 00:17 | 38.09069 | -75.42081 | 37040 ft | 484 kts | 14° |
| 2026-05-04 00:17 | 38.15180 | -75.38522 | 37043 ft | 486 kts | 14° |
| 2026-05-04 00:18 | 38.21344 | -75.34914 | 37088 ft | 487 kts | 14° |
| 2026-05-04 00:18 | 38.27512 | -75.31279 | 37093 ft | 488 kts | 14° |
| 2026-05-04 00:19 | 38.33650 | -75.27649 | 37091 ft | 488 kts | 14° |
| 2026-05-04 00:19 | 38.39826 | -75.24017 | 37090 ft | 488 kts | 14° |
| 2026-05-04 00:20 | 38.45955 | -75.20416 | 37058 ft | 485 kts | 15° |
| 2026-05-04 00:20 | 38.52078 | -75.16783 | 37048 ft | 485 kts | 15° |
| 2026-05-04 00:21 | 38.58226 | -75.13126 | 37028 ft | 488 kts | 15° |
| 2026-05-04 00:21 | 38.64340 | -75.09317 | 37058 ft | 493 kts | 17° |
| 2026-05-04 00:22 | 38.70469 | -75.05309 | 37043 ft | 495 kts | 18° |
| 2026-05-04 00:22 | 38.76613 | -75.01290 | 37049 ft | 496 kts | 17° |
| 2026-05-04 00:23 | 38.82759 | -74.97342 | 37053 ft | 496 kts | 17° |
| 2026-05-04 00:23 | 38.88930 | -74.93391 | 37047 ft | 494 kts | 18° |
| 2026-05-04 00:24 | 38.95063 | -74.89439 | 37049 ft | 495 kts | 18° |
| 2026-05-04 00:24 | 39.01234 | -74.85442 | 37054 ft | 495 kts | 18° |
| 2026-05-04 00:25 | 39.04283 | -74.83496 | 36874 ft | 492 kts | 14° |
| 2026-05-04 00:25 | 39.07481 | -74.82117 | 36029 ft | 479 kts | 2° |
| 2026-05-04 00:25 | 39.10727 | -74.81584 | 34948 ft | 461 kts | 351° |
| 2026-05-04 00:25 | 39.13866 | -74.81838 | 33828 ft | 444 kts | 340° |
| 2026-05-04 00:26 | 39.16814 | -74.82747 | 32504 ft | 431 kts | 334° |
| 2026-05-04 00:26 | 39.19698 | -74.83847 | 31107 ft | 431 kts | 334° |
| 2026-05-04 00:26 | 39.22537 | -74.84923 | 29628 ft | 430 kts | 335° |
| 2026-05-04 00:26 | 39.25414 | -74.86009 | 27841 ft | 431 kts | 335° |
| 2026-05-04 00:27 | 39.28295 | -74.87093 | 26423 ft | 429 kts | 336° |
| 2026-05-04 00:27 | 39.31139 | -74.88158 | 25137 ft | 423 kts | 337° |
| 2026-05-04 00:27 | 39.33954 | -74.89216 | 23876 ft | 417 kts | 337° |
| 2026-05-04 00:27 | 39.36697 | -74.90248 | 22512 ft | 411 kts | 337° |
| 2026-05-04 00:28 | 39.39429 | -74.91275 | 21190 ft | 405 kts | 338° |
| 2026-05-04 00:28 | 39.42120 | -74.92288 | 19921 ft | 398 kts | 338° |
| 2026-05-04 00:28 | 39.44759 | -74.93284 | 18703 ft | 391 kts | 338° |
| 2026-05-04 00:28 | 39.47324 | -74.94256 | 17459 ft | 386 kts | 339° |
| 2026-05-04 00:29 | 39.49896 | -74.95233 | 16256 ft | 380 kts | 339° |
| 2026-05-04 00:29 | 39.52422 | -74.96217 | 15130 ft | 373 kts | 337° |
| 2026-05-04 00:29 | 39.54704 | -74.97619 | 14059 ft | 362 kts | 326° |
| 2026-05-04 00:29 | 39.56750 | -74.99475 | 12852 ft | 356 kts | 322° |
| 2026-05-04 00:30 | 39.58742 | -75.01340 | 11737 ft | 349 kts | 323° |
| 2026-05-04 00:30 | 39.60624 | -75.03099 | 11338 ft | 324 kts | 323° |
| 2026-05-04 00:30 | 39.62384 | -75.04737 | 11186 ft | 295 kts | 323° |
| 2026-05-04 00:30 | 39.63990 | -75.06230 | 10991 ft | 274 kts | 323° |
| 2026-05-04 00:31 | 39.65516 | -75.07592 | 10459 ft | 267 kts | 330° |
| 2026-05-04 00:31 | 39.67212 | -75.08490 | 10120 ft | 258 kts | 343° |
| 2026-05-04 00:31 | 39.69012 | -75.08811 | 9915 ft | 263 kts | 357° |
| 2026-05-04 00:31 | 39.70828 | -75.08587 | 9787 ft | 266 kts | 6° |
| 2026-05-04 00:32 | 39.72619 | -75.07870 | 9586 ft | 273 kts | 21° |
| 2026-05-04 00:32 | 39.74199 | -75.06482 | 9107 ft | 278 kts | 38° |
| 2026-05-04 00:32 | 39.75530 | -75.04624 | 8622 ft | 279 kts | 42° |
| 2026-05-04 00:32 | 39.76820 | -75.02776 | 8146 ft | 278 kts | 42° |
| 2026-05-04 00:33 | 39.78130 | -75.00907 | 7647 ft | 278 kts | 42° |
| 2026-05-04 00:33 | 39.80736 | -74.97196 | 6674 ft | 277 kts | 41° |
| 2026-05-04 00:33 | 39.82132 | -74.95573 | 6173 ft | 268 kts | 27° |
| 2026-05-04 00:34 | 39.83826 | -74.94659 | 5422 ft | 261 kts | 5° |
| 2026-05-04 00:34 | 39.85608 | -74.94651 | 4726 ft | 254 kts | 345° |
| 2026-05-04 00:34 | 39.87238 | -74.95431 | 4183 ft | 245 kts | 332° |
| 2026-05-04 00:34 | 39.88740 | -74.96315 | 3962 ft | 235 kts | 331° |
| 2026-05-04 00:35 | 39.90061 | -74.97523 | 3659 ft | 228 kts | 312° |
| 2026-05-04 00:35 | 39.90955 | -74.99166 | 3490 ft | 218 kts | 295° |
| 2026-05-04 00:35 | 39.91386 | -75.01026 | 3283 ft | 212 kts | 278° |
| 2026-05-04 00:35 | 39.91413 | -75.02290 | 3122 ft | 210 kts | 267° |
| 2026-05-04 00:36 | 39.90998 | -75.04733 | 2792 ft | 204 kts | 258° |
| 2026-05-04 00:36 | 39.90650 | -75.06497 | 2503 ft | 198 kts | 258° |
| 2026-05-04 00:36 | 39.90312 | -75.08208 | 2237 ft | 191 kts | 258° |
| 2026-05-04 00:36 | 39.90096 | -75.09296 | 2079 ft | 183 kts | 258° |
| 2026-05-04 00:37 | 39.89791 | -75.10840 | 1821 ft | 169 kts | 258° |
| 2026-05-04 00:37 | 39.89513 | -75.12239 | 1622 ft | 149 kts | 258° |
| 2026-05-04 00:37 | 39.89268 | -75.13474 | 1417 ft | 133 kts | 258° |
| 2026-05-04 00:37 | 39.89047 | -75.14614 | 1227 ft | 128 kts | 258° |
| 2026-05-04 00:38 | 39.88828 | -75.15732 | 1069 ft | 127 kts | 257° |
| 2026-05-04 00:38 | 39.88603 | -75.16848 | 935 ft | 127 kts | 257° |
| 2026-05-04 00:38 | 39.88380 | -75.17959 | 806 ft | 126 kts | 257° |
| 2026-05-04 00:38 | 39.88163 | -75.19066 | 636 ft | 126 kts | 256° |
| 2026-05-04 00:39 | 39.87938 | -75.20169 | 432 ft | 125 kts | 256° |
| 2026-05-04 00:39 | 39.87726 | -75.21269 | 268 ft | 126 kts | 255° |
| 2026-05-04 00:39 | 39.87505 | -75.22369 | 60 ft | 126 kts | 256° |
| 2026-05-04 00:39 | 39.87305 | -75.23371 | 19 ft | 98 kts | 255° |
| 2026-05-04 00:40 | 39.87178 | -75.24006 | 24 ft | 39 kts | 255° |
| 2026-05-04 00:40 | 39.87159 | -75.24247 | 24 ft | 13 kts | 281° |
| 2026-05-04 00:40 | 39.87222 | -75.24296 | 23 ft | 11 kts | 25° |
| 2026-05-04 00:40 | 39.87257 | -75.24204 | 23 ft | 11 kts | 59° |
| 2026-05-04 00:41 | 39.87315 | -75.24181 | 22 ft | 9 kts | 37° |
| 2026-05-04 00:41 | 39.87367 | -75.24128 | 22 ft | 10 kts | 23° |
| 2026-05-04 00:41 | 39.87399 | -75.24107 | 24 ft | 2 kts | 28° |
| 2026-05-04 00:41 | 39.87401 | -75.24107 | 24 ft | 0 kts | 28° |